sensor_id;sensor_type;location;lat;lon;timestamp;P1;durP1;ratioP1;P2;durP2;ratioP2
70369;SDS011;57790;51.356;-2.906;2023-10-09T00:03:19;7.47;;;2.45;;
70369;SDS011;57790;51.356;-2.906;2023-10-09T00:06:23;6.95;;;2.33;;
70369;SDS011;57790;51.356;-2.906;2023-10-09T00:09:42;7.83;;;2.30;;
70369;SDS011;57790;51.356;-2.906;2023-10-09T00:12:46;8.30;;;2.40;;
70369;SDS011;57790;51.356;-2.906;2023-10-09T00:15:49;7.50;;;2.42;;
70369;SDS011;57790;51.356;-2.906;2023-10-09T00:18:53;7.65;;;2.30;;
70369;SDS011;57790;51.356;-2.906;2023-10-09T00:21:53;8.47;;;2.67;;
70369;SDS011;57790;51.356;-2.906;2023-10-09T00:24:56;7.57;;;2.40;;
70369;SDS011;57790;51.356;-2.906;2023-10-09T00:28:10;7.47;;;2.15;;
70369;SDS011;57790;51.356;-2.906;2023-10-09T00:31:11;7.43;;;2.03;;
70369;SDS011;57790;51.356;-2.906;2023-10-09T00:34:16;7.20;;;2.30;;
70369;SDS011;57790;51.356;-2.906;2023-10-09T00:37:19;7.88;;;2.25;;
70369;SDS011;57790;51.356;-2.906;2023-10-09T00:40:29;8.53;;;2.00;;
70369;SDS011;57790;51.356;-2.906;2023-10-09T00:43:30;8.95;;;2.70;;
70369;SDS011;57790;51.356;-2.906;2023-10-09T00:46:31;7.17;;;2.30;;
70369;SDS011;57790;51.356;-2.906;2023-10-09T00:49:34;7.18;;;2.15;;
70369;SDS011;57790;51.356;-2.906;2023-10-09T00:52:35;8.80;;;2.80;;
70369;SDS011;57790;51.356;-2.906;2023-10-09T00:55:39;8.63;;;2.63;;
70369;SDS011;57790;51.356;-2.906;2023-10-09T00:58:42;6.57;;;2.40;;
70369;SDS011;57790;51.356;-2.906;2023-10-09T01:01:43;7.70;;;2.47;;
70369;SDS011;57790;51.356;-2.906;2023-10-09T01:05:04;7.70;;;2.37;;
70369;SDS011;57790;51.356;-2.906;2023-10-09T01:08:19;7.10;;;2.30;;
70369;SDS011;57790;51.356;-2.906;2023-10-09T01:11:53;8.02;;;2.60;;
70369;SDS011;57790;51.356;-2.906;2023-10-09T01:14:59;7.38;;;2.17;;
70369;SDS011;57790;51.356;-2.906;2023-10-09T01:18:01;7.20;;;2.38;;
70369;SDS011;57790;51.356;-2.906;2023-10-09T01:21:02;8.90;;;2.50;;
70369;SDS011;57790;51.356;-2.906;2023-10-09T01:24:03;8.52;;;2.65;;
70369;SDS011;57790;51.356;-2.906;2023-10-09T01:27:03;7.57;;;2.40;;
70369;SDS011;57790;51.356;-2.906;2023-10-09T01:30:11;7.37;;;2.57;;
70369;SDS011;57790;51.356;-2.906;2023-10-09T01:33:13;7.38;;;2.25;;
70369;SDS011;57790;51.356;-2.906;2023-10-09T01:36:24;6.68;;;2.13;;
70369;SDS011;57790;51.356;-2.906;2023-10-09T01:39:31;8.32;;;2.33;;
70369;SDS011;57790;51.356;-2.906;2023-10-09T01:42:39;7.10;;;2.10;;
70369;SDS011;57790;51.356;-2.906;2023-10-09T01:45:45;6.77;;;2.10;;
70369;SDS011;57790;51.356;-2.906;2023-10-09T01:48:46;7.60;;;2.38;;
70369;SDS011;57790;51.356;-2.906;2023-10-09T01:51:47;7.90;;;2.63;;
70369;SDS011;57790;51.356;-2.906;2023-10-09T01:54:51;8.85;;;2.70;;
70369;SDS011;57790;51.356;-2.906;2023-10-09T01:57:53;8.38;;;2.53;;
70369;SDS011;57790;51.356;-2.906;2023-10-09T02:00:54;7.43;;;2.40;;
70369;SDS011;57790;51.356;-2.906;2023-10-09T02:03:55;7.43;;;2.33;;
70369;SDS011;57790;51.356;-2.906;2023-10-09T02:07:03;6.72;;;2.20;;
70369;SDS011;57790;51.356;-2.906;2023-10-09T02:10:08;6.85;;;1.98;;
70369;SDS011;57790;51.356;-2.906;2023-10-09T02:13:22;7.13;;;2.28;;
70369;SDS011;57790;51.356;-2.906;2023-10-09T02:16:35;7.20;;;2.13;;
70369;SDS011;57790;51.356;-2.906;2023-10-09T02:19:42;7.13;;;2.15;;
70369;SDS011;57790;51.356;-2.906;2023-10-09T02:22:42;7.53;;;2.25;;
70369;SDS011;57790;51.356;-2.906;2023-10-09T02:25:43;6.83;;;2.07;;
70369;SDS011;57790;51.356;-2.906;2023-10-09T02:28:43;6.63;;;2.30;;
70369;SDS011;57790;51.356;-2.906;2023-10-09T02:31:44;7.30;;;2.13;;
70369;SDS011;57790;51.356;-2.906;2023-10-09T02:34:47;7.15;;;2.13;;
70369;SDS011;57790;51.356;-2.906;2023-10-09T02:37:50;7.25;;;2.28;;
70369;SDS011;57790;51.356;-2.906;2023-10-09T02:40:53;9.43;;;2.10;;
70369;SDS011;57790;51.356;-2.906;2023-10-09T02:44:05;8.20;;;2.35;;
70369;SDS011;57790;51.356;-2.906;2023-10-09T02:47:10;7.25;;;1.98;;
70369;SDS011;57790;51.356;-2.906;2023-10-09T02:50:18;7.88;;;1.88;;
70369;SDS011;57790;51.356;-2.906;2023-10-09T02:53:21;6.43;;;1.92;;
70369;SDS011;57790;51.356;-2.906;2023-10-09T02:56:29;8.07;;;2.30;;
70369;SDS011;57790;51.356;-2.906;2023-10-09T02:59:58;7.25;;;2.03;;
70369;SDS011;57790;51.356;-2.906;2023-10-09T03:02:59;6.78;;;2.00;;
70369;SDS011;57790;51.356;-2.906;2023-10-09T03:05:59;6.30;;;1.90;;
70369;SDS011;57790;51.356;-2.906;2023-10-09T03:09:01;7.47;;;2.30;;
70369;SDS011;57790;51.356;-2.906;2023-10-09T03:12:16;8.17;;;2.40;;
70369;SDS011;57790;51.356;-2.906;2023-10-09T03:15:21;6.20;;;2.00;;
70369;SDS011;57790;51.356;-2.906;2023-10-09T03:18:22;7.65;;;2.30;;
70369;SDS011;57790;51.356;-2.906;2023-10-09T03:21:23;6.43;;;1.98;;
70369;SDS011;57790;51.356;-2.906;2023-10-09T03:24:27;6.63;;;2.17;;
70369;SDS011;57790;51.356;-2.906;2023-10-09T03:27:28;6.03;;;1.70;;
70369;SDS011;57790;51.356;-2.906;2023-10-09T03:30:28;7.33;;;2.00;;
70369;SDS011;57790;51.356;-2.906;2023-10-09T03:33:32;7.38;;;1.90;;
70369;SDS011;57790;51.356;-2.906;2023-10-09T03:36:33;6.83;;;2.13;;
70369;SDS011;57790;51.356;-2.906;2023-10-09T03:39:38;9.20;;;2.33;;
70369;SDS011;57790;51.356;-2.906;2023-10-09T03:42:40;7.93;;;2.42;;
70369;SDS011;57790;51.356;-2.906;2023-10-09T03:45:42;8.32;;;2.17;;
70369;SDS011;57790;51.356;-2.906;2023-10-09T03:48:52;7.82;;;2.10;;
70369;SDS011;57790;51.356;-2.906;2023-10-09T03:52:02;7.03;;;2.00;;
70369;SDS011;57790;51.356;-2.906;2023-10-09T03:55:02;6.82;;;2.10;;
70369;SDS011;57790;51.356;-2.906;2023-10-09T03:58:07;7.07;;;2.07;;
70369;SDS011;57790;51.356;-2.906;2023-10-09T04:01:19;7.50;;;1.92;;
70369;SDS011;57790;51.356;-2.906;2023-10-09T04:04:29;7.80;;;2.13;;
70369;SDS011;57790;51.356;-2.906;2023-10-09T04:07:33;6.43;;;1.95;;
70369;SDS011;57790;51.356;-2.906;2023-10-09T04:10:33;7.20;;;2.10;;
70369;SDS011;57790;51.356;-2.906;2023-10-09T04:13:44;7.05;;;2.08;;
70369;SDS011;57790;51.356;-2.906;2023-10-09T04:16:46;7.70;;;2.35;;
70369;SDS011;57790;51.356;-2.906;2023-10-09T04:19:56;6.68;;;2.10;;
70369;SDS011;57790;51.356;-2.906;2023-10-09T04:23:35;7.87;;;2.50;;
70369;SDS011;57790;51.356;-2.906;2023-10-09T04:26:49;7.47;;;2.15;;
70369;SDS011;57790;51.356;-2.906;2023-10-09T04:29:56;7.60;;;2.40;;
70369;SDS011;57790;51.356;-2.906;2023-10-09T04:33:00;8.07;;;2.50;;
70369;SDS011;57790;51.356;-2.906;2023-10-09T04:36:11;7.55;;;2.55;;
70369;SDS011;57790;51.356;-2.906;2023-10-09T04:39:20;7.83;;;2.40;;
70369;SDS011;57790;51.356;-2.906;2023-10-09T04:42:29;7.85;;;2.38;;
70369;SDS011;57790;51.356;-2.906;2023-10-09T04:45:46;9.60;;;2.60;;
70369;SDS011;57790;51.356;-2.906;2023-10-09T04:49:07;7.43;;;2.28;;
70369;SDS011;57790;51.356;-2.906;2023-10-09T04:52:26;7.75;;;2.65;;
70369;SDS011;57790;51.356;-2.906;2023-10-09T04:55:29;7.43;;;2.37;;
70369;SDS011;57790;51.356;-2.906;2023-10-09T04:58:38;6.70;;;2.38;;
70369;SDS011;57790;51.356;-2.906;2023-10-09T05:01:39;8.55;;;2.50;;
70369;SDS011;57790;51.356;-2.906;2023-10-09T05:04:46;11.00;;;2.42;;
70369;SDS011;57790;51.356;-2.906;2023-10-09T05:07:51;7.73;;;2.50;;
70369;SDS011;57790;51.356;-2.906;2023-10-09T05:11:02;8.13;;;2.70;;
70369;SDS011;57790;51.356;-2.906;2023-10-09T05:14:03;8.18;;;2.70;;
70369;SDS011;57790;51.356;-2.906;2023-10-09T05:17:12;8.60;;;2.60;;
70369;SDS011;57790;51.356;-2.906;2023-10-09T05:20:15;8.13;;;2.70;;
70369;SDS011;57790;51.356;-2.906;2023-10-09T05:23:28;8.10;;;2.50;;
70369;SDS011;57790;51.356;-2.906;2023-10-09T05:26:29;8.60;;;2.72;;
70369;SDS011;57790;51.356;-2.906;2023-10-09T05:29:47;7.32;;;2.33;;
70369;SDS011;57790;51.356;-2.906;2023-10-09T05:32:59;8.30;;;2.53;;
70369;SDS011;57790;51.356;-2.906;2023-10-09T05:36:08;8.47;;;2.60;;
70369;SDS011;57790;51.356;-2.906;2023-10-09T05:39:31;7.90;;;2.55;;
70369;SDS011;57790;51.356;-2.906;2023-10-09T05:42:54;8.40;;;2.80;;
70369;SDS011;57790;51.356;-2.906;2023-10-09T05:45:59;7.43;;;2.75;;
70369;SDS011;57790;51.356;-2.906;2023-10-09T05:49:08;7.72;;;2.50;;
70369;SDS011;57790;51.356;-2.906;2023-10-09T05:52:19;7.67;;;2.70;;
70369;SDS011;57790;51.356;-2.906;2023-10-09T05:55:42;7.53;;;2.75;;
70369;SDS011;57790;51.356;-2.906;2023-10-09T05:59:21;10.25;;;2.70;;
70369;SDS011;57790;51.356;-2.906;2023-10-09T06:02:40;8.27;;;2.70;;
70369;SDS011;57790;51.356;-2.906;2023-10-09T06:05:58;7.75;;;2.55;;
70369;SDS011;57790;51.356;-2.906;2023-10-09T06:09:02;8.47;;;2.57;;
70369;SDS011;57790;51.356;-2.906;2023-10-09T06:12:12;7.47;;;2.50;;
70369;SDS011;57790;51.356;-2.906;2023-10-09T06:15:37;7.40;;;2.77;;
70369;SDS011;57790;51.356;-2.906;2023-10-09T06:18:50;9.00;;;2.70;;
70369;SDS011;57790;51.356;-2.906;2023-10-09T06:22:09;9.32;;;2.70;;
70369;SDS011;57790;51.356;-2.906;2023-10-09T06:25:19;9.43;;;2.58;;
70369;SDS011;57790;51.356;-2.906;2023-10-09T06:28:26;9.18;;;2.83;;
70369;SDS011;57790;51.356;-2.906;2023-10-09T06:31:33;8.73;;;2.70;;
70369;SDS011;57790;51.356;-2.906;2023-10-09T06:34:54;7.35;;;2.35;;
70369;SDS011;57790;51.356;-2.906;2023-10-09T06:38:14;8.05;;;2.90;;
70369;SDS011;57790;51.356;-2.906;2023-10-09T06:41:22;8.00;;;2.88;;
70369;SDS011;57790;51.356;-2.906;2023-10-09T06:44:35;6.90;;;2.40;;
70369;SDS011;57790;51.356;-2.906;2023-10-09T06:47:53;7.63;;;2.80;;
70369;SDS011;57790;51.356;-2.906;2023-10-09T06:51:08;7.30;;;2.60;;
70369;SDS011;57790;51.356;-2.906;2023-10-09T06:54:15;7.70;;;2.58;;
70369;SDS011;57790;51.356;-2.906;2023-10-09T06:57:16;7.63;;;2.70;;
70369;SDS011;57790;51.356;-2.906;2023-10-09T07:00:40;9.15;;;2.58;;
70369;SDS011;57790;51.356;-2.906;2023-10-09T07:03:58;10.20;;;2.92;;
70369;SDS011;57790;51.356;-2.906;2023-10-09T07:07:18;7.93;;;2.60;;
70369;SDS011;57790;51.356;-2.906;2023-10-09T07:10:21;8.07;;;2.70;;
70369;SDS011;57790;51.356;-2.906;2023-10-09T07:13:32;9.30;;;2.60;;
70369;SDS011;57790;51.356;-2.906;2023-10-09T07:16:37;7.13;;;2.35;;
70369;SDS011;57790;51.356;-2.906;2023-10-09T07:19:57;8.35;;;2.45;;
70369;SDS011;57790;51.356;-2.906;2023-10-09T07:23:08;8.05;;;2.58;;
70369;SDS011;57790;51.356;-2.906;2023-10-09T07:26:15;7.80;;;2.30;;
70369;SDS011;57790;51.356;-2.906;2023-10-09T07:29:21;7.82;;;2.55;;
70369;SDS011;57790;51.356;-2.906;2023-10-09T07:32:27;8.75;;;2.58;;
70369;SDS011;57790;51.356;-2.906;2023-10-09T07:35:30;7.22;;;2.28;;
70369;SDS011;57790;51.356;-2.906;2023-10-09T07:38:43;10.40;;;2.70;;
70369;SDS011;57790;51.356;-2.906;2023-10-09T07:41:45;7.50;;;2.67;;
70369;SDS011;57790;51.356;-2.906;2023-10-09T07:44:56;8.90;;;2.42;;
70369;SDS011;57790;51.356;-2.906;2023-10-09T07:47:57;7.32;;;2.25;;
70369;SDS011;57790;51.356;-2.906;2023-10-09T07:51:01;8.10;;;2.60;;
70369;SDS011;57790;51.356;-2.906;2023-10-09T07:54:05;8.37;;;2.60;;
70369;SDS011;57790;51.356;-2.906;2023-10-09T07:57:08;7.53;;;2.55;;
70369;SDS011;57790;51.356;-2.906;2023-10-09T08:00:09;7.63;;;2.53;;
70369;SDS011;57790;51.356;-2.906;2023-10-09T08:03:33;7.72;;;2.63;;
70369;SDS011;57790;51.356;-2.906;2023-10-09T08:06:37;9.10;;;2.85;;
70369;SDS011;57790;51.356;-2.906;2023-10-09T08:09:44;8.45;;;2.70;;
70369;SDS011;57790;51.356;-2.906;2023-10-09T08:13:11;9.27;;;2.72;;
70369;SDS011;57790;51.356;-2.906;2023-10-09T08:16:40;7.57;;;2.60;;
70369;SDS011;57790;51.356;-2.906;2023-10-09T08:19:50;8.52;;;2.67;;
70369;SDS011;57790;51.356;-2.906;2023-10-09T08:22:54;8.27;;;2.47;;
70369;SDS011;57790;51.356;-2.906;2023-10-09T08:26:07;8.85;;;2.40;;
70369;SDS011;57790;51.356;-2.906;2023-10-09T08:29:15;7.63;;;2.63;;
70369;SDS011;57790;51.356;-2.906;2023-10-09T08:32:19;9.70;;;2.63;;
70369;SDS011;57790;51.356;-2.906;2023-10-09T08:35:38;8.32;;;2.35;;
70369;SDS011;57790;51.356;-2.906;2023-10-09T08:38:47;7.30;;;2.35;;
70369;SDS011;57790;51.356;-2.906;2023-10-09T08:41:47;7.83;;;2.67;;
70369;SDS011;57790;51.356;-2.906;2023-10-09T08:44:49;6.80;;;2.25;;
70369;SDS011;57790;51.356;-2.906;2023-10-09T08:47:52;6.50;;;2.20;;
70369;SDS011;57790;51.356;-2.906;2023-10-09T08:50:55;8.10;;;2.40;;
70369;SDS011;57790;51.356;-2.906;2023-10-09T08:53:56;8.93;;;2.47;;
70369;SDS011;57790;51.356;-2.906;2023-10-09T08:56:56;8.43;;;2.43;;
70369;SDS011;57790;51.356;-2.906;2023-10-09T08:59:58;7.60;;;2.45;;
70369;SDS011;57790;51.356;-2.906;2023-10-09T09:02:58;8.23;;;2.47;;
70369;SDS011;57790;51.356;-2.906;2023-10-09T09:06:03;7.32;;;2.40;;
70369;SDS011;57790;51.356;-2.906;2023-10-09T09:09:11;7.75;;;2.40;;
70369;SDS011;57790;51.356;-2.906;2023-10-09T09:12:13;9.05;;;2.67;;
70369;SDS011;57790;51.356;-2.906;2023-10-09T09:15:16;7.93;;;2.40;;
70369;SDS011;57790;51.356;-2.906;2023-10-09T09:18:20;8.48;;;2.22;;
70369;SDS011;57790;51.356;-2.906;2023-10-09T09:21:22;8.70;;;2.50;;
70369;SDS011;57790;51.356;-2.906;2023-10-09T09:24:22;7.40;;;2.10;;
70369;SDS011;57790;51.356;-2.906;2023-10-09T09:27:23;7.47;;;2.50;;
70369;SDS011;57790;51.356;-2.906;2023-10-09T09:30:31;8.38;;;2.15;;
70369;SDS011;57790;51.356;-2.906;2023-10-09T09:33:33;7.60;;;2.20;;
70369;SDS011;57790;51.356;-2.906;2023-10-09T09:36:49;6.88;;;2.15;;
70369;SDS011;57790;51.356;-2.906;2023-10-09T09:40:00;6.60;;;2.53;;
70369;SDS011;57790;51.356;-2.906;2023-10-09T09:43:14;8.23;;;2.13;;
70369;SDS011;57790;51.356;-2.906;2023-10-09T09:46:25;6.78;;;2.15;;
70369;SDS011;57790;51.356;-2.906;2023-10-09T09:49:33;7.32;;;2.05;;
70369;SDS011;57790;51.356;-2.906;2023-10-09T09:52:38;5.75;;;1.63;;
70369;SDS011;57790;51.356;-2.906;2023-10-09T09:55:39;6.53;;;2.13;;
70369;SDS011;57790;51.356;-2.906;2023-10-09T09:58:52;6.25;;;1.90;;
70369;SDS011;57790;51.356;-2.906;2023-10-09T10:01:56;7.07;;;2.05;;
70369;SDS011;57790;51.356;-2.906;2023-10-09T10:05:06;6.70;;;1.90;;
70369;SDS011;57790;51.356;-2.906;2023-10-09T10:08:14;6.83;;;2.20;;
70369;SDS011;57790;51.356;-2.906;2023-10-09T10:14:58;6.70;;;2.05;;
70369;SDS011;57790;51.356;-2.906;2023-10-09T10:21:09;6.77;;;2.23;;
70369;SDS011;57790;51.356;-2.906;2023-10-09T10:24:40;7.22;;;2.22;;
70369;SDS011;57790;51.356;-2.906;2023-10-09T10:28:09;7.30;;;2.10;;
70369;SDS011;57790;51.356;-2.906;2023-10-09T10:35:12;6.57;;;2.10;;
70369;SDS011;57790;51.356;-2.906;2023-10-09T10:38:25;8.20;;;2.30;;
70369;SDS011;57790;51.356;-2.906;2023-10-09T10:41:52;6.22;;;2.08;;
70369;SDS011;57790;51.356;-2.906;2023-10-09T10:45:05;7.43;;;2.30;;
70369;SDS011;57790;51.356;-2.906;2023-10-09T10:48:25;5.95;;;2.10;;
70369;SDS011;57790;51.356;-2.906;2023-10-09T10:51:37;5.73;;;1.80;;
70369;SDS011;57790;51.356;-2.906;2023-10-09T10:54:40;7.47;;;2.22;;
70369;SDS011;57790;51.356;-2.906;2023-10-09T10:57:41;6.70;;;2.08;;
70369;SDS011;57790;51.356;-2.906;2023-10-09T11:00:54;7.95;;;2.40;;
70369;SDS011;57790;51.356;-2.906;2023-10-09T11:03:57;6.80;;;2.07;;
70369;SDS011;57790;51.356;-2.906;2023-10-09T11:06:59;7.80;;;2.10;;
70369;SDS011;57790;51.356;-2.906;2023-10-09T11:10:09;6.10;;;2.00;;
70369;SDS011;57790;51.356;-2.906;2023-10-09T11:13:20;5.75;;;1.98;;
70369;SDS011;57790;51.356;-2.906;2023-10-09T11:16:30;6.10;;;1.90;;
70369;SDS011;57790;51.356;-2.906;2023-10-09T11:19:47;6.57;;;2.10;;
70369;SDS011;57790;51.356;-2.906;2023-10-09T11:22:48;7.30;;;2.20;;
70369;SDS011;57790;51.356;-2.906;2023-10-09T11:26:08;6.37;;;2.00;;
70369;SDS011;57790;51.356;-2.906;2023-10-09T11:29:25;6.05;;;2.05;;
70369;SDS011;57790;51.356;-2.906;2023-10-09T11:32:44;6.82;;;2.10;;
70369;SDS011;57790;51.356;-2.906;2023-10-09T11:35:56;7.97;;;2.40;;
70369;SDS011;57790;51.356;-2.906;2023-10-09T11:38:57;6.40;;;2.10;;
70369;SDS011;57790;51.356;-2.906;2023-10-09T11:42:18;7.80;;;2.40;;
70369;SDS011;57790;51.356;-2.906;2023-10-09T11:45:42;6.32;;;2.10;;
70369;SDS011;57790;51.356;-2.906;2023-10-09T11:49:06;7.78;;;2.60;;
70369;SDS011;57790;51.356;-2.906;2023-10-09T11:52:20;6.68;;;2.05;;
70369;SDS011;57790;51.356;-2.906;2023-10-09T11:55:36;8.02;;;2.33;;
70369;SDS011;57790;51.356;-2.906;2023-10-09T11:58:36;5.90;;;1.90;;
70369;SDS011;57790;51.356;-2.906;2023-10-09T12:01:40;6.50;;;2.10;;
70369;SDS011;57790;51.356;-2.906;2023-10-09T12:04:53;7.70;;;2.20;;
70369;SDS011;57790;51.356;-2.906;2023-10-09T12:07:55;5.93;;;1.75;;
70369;SDS011;57790;51.356;-2.906;2023-10-09T12:10:57;5.90;;;1.85;;
70369;SDS011;57790;51.356;-2.906;2023-10-09T12:13:58;6.15;;;1.92;;
70369;SDS011;57790;51.356;-2.906;2023-10-09T12:17:00;5.95;;;2.13;;
70369;SDS011;57790;51.356;-2.906;2023-10-09T12:20:05;6.80;;;2.00;;
70369;SDS011;57790;51.356;-2.906;2023-10-09T12:23:14;5.07;;;1.55;;
70369;SDS011;57790;51.356;-2.906;2023-10-09T12:26:14;5.90;;;1.80;;
70369;SDS011;57790;51.356;-2.906;2023-10-09T12:29:15;6.30;;;1.83;;
70369;SDS011;57790;51.356;-2.906;2023-10-09T12:32:16;7.07;;;2.03;;
70369;SDS011;57790;51.356;-2.906;2023-10-09T12:35:19;5.43;;;1.75;;
70369;SDS011;57790;51.356;-2.906;2023-10-09T12:38:20;6.37;;;1.67;;
70369;SDS011;57790;51.356;-2.906;2023-10-09T12:41:22;6.35;;;2.10;;
70369;SDS011;57790;51.356;-2.906;2023-10-09T12:44:26;7.00;;;2.00;;
70369;SDS011;57790;51.356;-2.906;2023-10-09T12:47:27;6.60;;;1.77;;
70369;SDS011;57790;51.356;-2.906;2023-10-09T12:50:27;5.70;;;1.83;;
70369;SDS011;57790;51.356;-2.906;2023-10-09T12:53:29;5.57;;;1.70;;
70369;SDS011;57790;51.356;-2.906;2023-10-09T12:56:29;5.13;;;1.47;;
70369;SDS011;57790;51.356;-2.906;2023-10-09T12:59:32;7.05;;;2.15;;
70369;SDS011;57790;51.356;-2.906;2023-10-09T13:02:35;5.00;;;1.58;;
70369;SDS011;57790;51.356;-2.906;2023-10-09T13:05:35;5.17;;;1.43;;
70369;SDS011;57790;51.356;-2.906;2023-10-09T13:08:37;4.70;;;1.40;;
70369;SDS011;57790;51.356;-2.906;2023-10-09T13:11:43;5.55;;;1.52;;
70369;SDS011;57790;51.356;-2.906;2023-10-09T13:14:48;6.00;;;1.77;;
70369;SDS011;57790;51.356;-2.906;2023-10-09T13:17:49;6.07;;;1.63;;
70369;SDS011;57790;51.356;-2.906;2023-10-09T13:20:53;5.72;;;1.63;;
70369;SDS011;57790;51.356;-2.906;2023-10-09T13:23:53;6.43;;;1.90;;
70369;SDS011;57790;51.356;-2.906;2023-10-09T13:26:54;6.22;;;1.77;;
70369;SDS011;57790;51.356;-2.906;2023-10-09T13:29:58;5.20;;;1.80;;
70369;SDS011;57790;51.356;-2.906;2023-10-09T13:33:05;6.30;;;1.90;;
70369;SDS011;57790;51.356;-2.906;2023-10-09T13:36:05;6.87;;;1.90;;
70369;SDS011;57790;51.356;-2.906;2023-10-09T13:39:16;7.07;;;2.08;;
70369;SDS011;57790;51.356;-2.906;2023-10-09T13:42:19;6.67;;;1.83;;
70369;SDS011;57790;51.356;-2.906;2023-10-09T13:45:27;6.03;;;1.90;;
70369;SDS011;57790;51.356;-2.906;2023-10-09T13:48:28;6.57;;;2.08;;
70369;SDS011;57790;51.356;-2.906;2023-10-09T13:51:31;6.88;;;2.20;;
70369;SDS011;57790;51.356;-2.906;2023-10-09T13:54:33;6.03;;;2.05;;
70369;SDS011;57790;51.356;-2.906;2023-10-09T13:57:33;6.10;;;1.70;;
70369;SDS011;57790;51.356;-2.906;2023-10-09T14:00:34;6.90;;;2.20;;
70369;SDS011;57790;51.356;-2.906;2023-10-09T14:03:42;7.00;;;2.10;;
70369;SDS011;57790;51.356;-2.906;2023-10-09T14:06:44;7.45;;;2.28;;
70369;SDS011;57790;51.356;-2.906;2023-10-09T14:09:45;6.35;;;2.22;;
70369;SDS011;57790;51.356;-2.906;2023-10-09T14:12:54;7.03;;;2.25;;
70369;SDS011;57790;51.356;-2.906;2023-10-09T14:15:57;8.60;;;2.60;;
70369;SDS011;57790;51.356;-2.906;2023-10-09T14:18:59;6.40;;;2.27;;
70369;SDS011;57790;51.356;-2.906;2023-10-09T14:22:00;7.10;;;2.13;;
70369;SDS011;57790;51.356;-2.906;2023-10-09T14:25:05;7.05;;;2.22;;
70369;SDS011;57790;51.356;-2.906;2023-10-09T14:28:13;6.18;;;2.00;;
70369;SDS011;57790;51.356;-2.906;2023-10-09T14:31:19;6.63;;;2.00;;
70369;SDS011;57790;51.356;-2.906;2023-10-09T14:34:27;7.25;;;2.00;;
70369;SDS011;57790;51.356;-2.906;2023-10-09T14:37:35;6.55;;;1.95;;
70369;SDS011;57790;51.356;-2.906;2023-10-09T14:40:36;7.83;;;2.33;;
70369;SDS011;57790;51.356;-2.906;2023-10-09T14:43:41;7.55;;;2.35;;
70369;SDS011;57790;51.356;-2.906;2023-10-09T14:46:42;7.03;;;2.07;;
70369;SDS011;57790;51.356;-2.906;2023-10-09T14:49:42;6.47;;;2.13;;
70369;SDS011;57790;51.356;-2.906;2023-10-09T14:52:49;7.93;;;2.15;;
70369;SDS011;57790;51.356;-2.906;2023-10-09T14:55:56;5.80;;;2.03;;
70369;SDS011;57790;51.356;-2.906;2023-10-09T14:58:57;6.25;;;2.10;;
70369;SDS011;57790;51.356;-2.906;2023-10-09T15:01:59;6.75;;;2.08;;
70369;SDS011;57790;51.356;-2.906;2023-10-09T15:04:59;5.82;;;1.70;;
70369;SDS011;57790;51.356;-2.906;2023-10-09T15:08:00;6.20;;;1.80;;
70369;SDS011;57790;51.356;-2.906;2023-10-09T15:11:00;5.93;;;1.83;;
70369;SDS011;57790;51.356;-2.906;2023-10-09T15:14:01;6.50;;;2.00;;
70369;SDS011;57790;51.356;-2.906;2023-10-09T15:17:04;6.63;;;2.13;;
70369;SDS011;57790;51.356;-2.906;2023-10-09T15:20:07;6.78;;;2.00;;
70369;SDS011;57790;51.356;-2.906;2023-10-09T15:23:13;6.07;;;1.95;;
70369;SDS011;57790;51.356;-2.906;2023-10-09T15:26:14;8.17;;;2.03;;
70369;SDS011;57790;51.356;-2.906;2023-10-09T15:29:20;6.53;;;1.92;;
70369;SDS011;57790;51.356;-2.906;2023-10-09T15:32:23;7.15;;;2.00;;
70369;SDS011;57790;51.356;-2.906;2023-10-09T15:35:24;7.50;;;1.90;;
70369;SDS011;57790;51.356;-2.906;2023-10-09T15:38:28;6.55;;;2.00;;
70369;SDS011;57790;51.356;-2.906;2023-10-09T15:41:29;5.93;;;2.00;;
70369;SDS011;57790;51.356;-2.906;2023-10-09T15:44:30;6.27;;;2.00;;
70369;SDS011;57790;51.356;-2.906;2023-10-09T15:47:33;7.10;;;1.90;;
70369;SDS011;57790;51.356;-2.906;2023-10-09T15:50:36;6.20;;;1.95;;
70369;SDS011;57790;51.356;-2.906;2023-10-09T15:53:37;6.13;;;2.00;;
70369;SDS011;57790;51.356;-2.906;2023-10-09T15:56:38;6.47;;;1.83;;
70369;SDS011;57790;51.356;-2.906;2023-10-09T15:59:41;5.75;;;1.70;;
70369;SDS011;57790;51.356;-2.906;2023-10-09T16:02:42;6.37;;;1.83;;
70369;SDS011;57790;51.356;-2.906;2023-10-09T16:05:43;5.75;;;1.90;;
70369;SDS011;57790;51.356;-2.906;2023-10-09T16:08:45;5.80;;;1.83;;
70369;SDS011;57790;51.356;-2.906;2023-10-09T16:11:47;6.72;;;1.98;;
70369;SDS011;57790;51.356;-2.906;2023-10-09T16:14:47;5.63;;;1.90;;
70369;SDS011;57790;51.356;-2.906;2023-10-09T16:17:48;6.05;;;1.80;;
70369;SDS011;57790;51.356;-2.906;2023-10-09T16:20:58;6.30;;;1.70;;
70369;SDS011;57790;51.356;-2.906;2023-10-09T16:24:01;6.05;;;1.85;;
70369;SDS011;57790;51.356;-2.906;2023-10-09T16:27:06;6.60;;;1.98;;
70369;SDS011;57790;51.356;-2.906;2023-10-09T16:30:07;8.43;;;2.00;;
70369;SDS011;57790;51.356;-2.906;2023-10-09T16:33:13;6.45;;;2.00;;
70369;SDS011;57790;51.356;-2.906;2023-10-09T16:36:16;5.77;;;1.60;;
70369;SDS011;57790;51.356;-2.906;2023-10-09T16:39:16;6.18;;;1.65;;
70369;SDS011;57790;51.356;-2.906;2023-10-09T16:42:22;6.45;;;1.95;;
70369;SDS011;57790;51.356;-2.906;2023-10-09T16:45:24;6.28;;;1.70;;
70369;SDS011;57790;51.356;-2.906;2023-10-09T16:48:26;6.83;;;1.87;;
70369;SDS011;57790;51.356;-2.906;2023-10-09T16:51:30;6.13;;;2.20;;
70369;SDS011;57790;51.356;-2.906;2023-10-09T16:54:30;6.85;;;1.90;;
70369;SDS011;57790;51.356;-2.906;2023-10-09T16:57:39;6.28;;;1.80;;
70369;SDS011;57790;51.356;-2.906;2023-10-09T17:00:41;5.83;;;1.70;;
70369;SDS011;57790;51.356;-2.906;2023-10-09T17:03:46;5.85;;;2.00;;
70369;SDS011;57790;51.356;-2.906;2023-10-09T17:06:54;7.40;;;1.80;;
70369;SDS011;57790;51.356;-2.906;2023-10-09T17:09:58;6.53;;;1.90;;
70369;SDS011;57790;51.356;-2.906;2023-10-09T17:12:58;6.33;;;1.90;;
70369;SDS011;57790;51.356;-2.906;2023-10-09T17:16:00;6.55;;;1.85;;
70369;SDS011;57790;51.356;-2.906;2023-10-09T17:19:02;5.95;;;1.80;;
70369;SDS011;57790;51.356;-2.906;2023-10-09T17:22:06;6.30;;;2.10;;
70369;SDS011;57790;51.356;-2.906;2023-10-09T17:25:12;6.75;;;1.90;;
70369;SDS011;57790;51.356;-2.906;2023-10-09T17:28:16;6.82;;;1.90;;
70369;SDS011;57790;51.356;-2.906;2023-10-09T17:31:19;5.88;;;1.75;;
70369;SDS011;57790;51.356;-2.906;2023-10-09T17:34:21;6.43;;;1.60;;
70369;SDS011;57790;51.356;-2.906;2023-10-09T17:37:23;6.33;;;1.77;;
70369;SDS011;57790;51.356;-2.906;2023-10-09T17:40:23;6.13;;;2.00;;
70369;SDS011;57790;51.356;-2.906;2023-10-09T17:43:27;6.17;;;2.10;;
70369;SDS011;57790;51.356;-2.906;2023-10-09T17:46:30;5.80;;;1.67;;
70369;SDS011;57790;51.356;-2.906;2023-10-09T17:49:30;5.47;;;1.63;;
70369;SDS011;57790;51.356;-2.906;2023-10-09T17:52:31;5.17;;;1.70;;
70369;SDS011;57790;51.356;-2.906;2023-10-09T17:55:35;6.40;;;2.00;;
70369;SDS011;57790;51.356;-2.906;2023-10-09T17:58:36;5.82;;;1.80;;
70369;SDS011;57790;51.356;-2.906;2023-10-09T18:01:37;6.07;;;1.80;;
70369;SDS011;57790;51.356;-2.906;2023-10-09T18:04:38;5.80;;;1.83;;
70369;SDS011;57790;51.356;-2.906;2023-10-09T18:07:41;7.13;;;2.13;;
70369;SDS011;57790;51.356;-2.906;2023-10-09T18:10:43;7.15;;;2.38;;
70369;SDS011;57790;51.356;-2.906;2023-10-09T18:13:44;7.20;;;2.40;;
70369;SDS011;57790;51.356;-2.906;2023-10-09T18:16:45;7.65;;;2.08;;
70369;SDS011;57790;51.356;-2.906;2023-10-09T18:19:47;6.32;;;2.17;;
70369;SDS011;57790;51.356;-2.906;2023-10-09T18:22:50;7.33;;;2.20;;
70369;SDS011;57790;51.356;-2.906;2023-10-09T18:25:55;6.80;;;2.00;;
70369;SDS011;57790;51.356;-2.906;2023-10-09T18:28:58;7.10;;;2.60;;
70369;SDS011;57790;51.356;-2.906;2023-10-09T18:31:58;6.83;;;2.07;;
70369;SDS011;57790;51.356;-2.906;2023-10-09T18:35:00;7.65;;;2.53;;
70369;SDS011;57790;51.356;-2.906;2023-10-09T18:38:01;6.93;;;2.10;;